Time;durP1;ratioP1;P1;durP2;ratioP2;P2;SDS_P1;SDS_P2;PMS_P1;PMS_P2;Temp;Humidity;BMP_temperature;BMP_pressure;BME280_temperature;BME280_humidity;BME280_pressure;Samples;Min_cycle;Max_cycle;Signal;HPM_P1;HPM_P2
2022/09/12 00:01:30;;;;;;;0.70;0.60;;;;;;;10.45;82.42;97953.96;104526;1277;74508;-25
2022/09/12 00:03:59;;;;;;;0.90;0.60;;;;;;;10.57;81.36;97957.61;104397;1277;62970;-23
2022/09/12 00:06:31;;;;;;;3.40;0.70;;;;;;;10.34;82.79;97953.42;104387;1278;62844;-23
2022/09/12 00:09:00;;;;;;;1.00;0.80;;;;;;;10.08;83.93;97950.33;104380;1278;76221;-23
2022/09/12 00:11:27;;;;;;;2.10;0.50;;;;;;;10.01;83.81;97949.65;104326;1279;77453;-23
2022/09/12 00:13:56;;;;;;;1.00;0.50;;;;;;;10.32;83.07;97946.34;104466;1277;75533;-23
2022/09/12 00:16:24;;;;;;;1.20;0.70;;;;;;;10.66;82.07;97946.02;104413;1278;62047;-23
2022/09/12 00:18:52;;;;;;;1.60;0.70;;;;;;;10.62;81.65;97943.43;104355;1278;63409;-23
2022/09/12 00:21:19;;;;;;;3.00;0.90;;;;;;;10.44;82.06;97944.14;104612;1277;75639;-23
2022/09/12 00:23:47;;;;;;;0.50;0.50;;;;;;;10.23;82.56;97942.46;104520;1277;75977;-23
2022/09/12 00:26:14;;;;;;;0.50;0.50;;;;;;;10.09;83.64;97938.44;104630;1277;75341;-23
2022/09/12 00:28:41;;;;;;;1.00;0.70;;;;;;;10.51;82.15;97939.44;104467;1278;62171;-24
2022/09/12 00:31:10;;;;;;;1.90;0.60;;;;;;;10.75;81.33;97934.33;104521;1278;62188;-23
2022/09/12 00:33:37;;;;;;;0.50;0.50;;;;;;;10.55;81.54;97929.32;104449;1281;74621;-23
2022/09/12 00:36:13;;;;;;;0.50;0.50;;;;;;;10.32;82.31;97929.27;104682;1277;76367;-23
2022/09/12 00:38:41;;;;;;;3.00;0.90;;;;;;;10.08;83.64;97932.00;104564;1278;75302;-23
2022/09/12 00:41:20;;;;;;;0.30;0.30;;;;;;;9.92;84.82;97927.98;104439;1278;63598;-24
2022/09/12 00:43:49;;;;;;;0.40;0.40;;;;;;;10.34;83.41;97926.32;104336;1278;62801;-23
2022/09/12 00:46:19;;;;;;;0.50;0.40;;;;;;;10.46;82.26;97925.16;104242;1278;76573;-24
2022/09/12 00:48:49;;;;;;;0.50;0.40;;;;;;;10.35;82.90;97922.42;104367;1277;77073;-23
2022/09/12 00:51:16;;;;;;;2.30;0.50;;;;;;;10.17;83.02;97925.08;104296;1278;75928;-23
2022/09/12 00:53:43;;;;;;;2.20;0.50;;;;;;;9.97;84.13;97920.77;104653;1277;63080;-23
2022/09/12 00:56:11;;;;;;;0.80;0.50;;;;;;;10.24;84.06;97919.34;104578;1278;63110;-23
2022/09/12 00:58:52;;;;;;;0.30;0.30;;;;;;;10.59;82.25;97915.48;104440;1278;76576;-23
2022/09/12 01:01:19;;;;;;;0.30;0.30;;;;;;;10.56;81.68;97915.86;104261;1277;76398;-23
2022/09/12 01:03:46;;;;;;;0.30;0.30;;;;;;;10.33;82.54;97916.26;104347;1278;75403;-23
2022/09/12 01:06:36;;;;;;;0.30;0.30;;;;;;;10.05;83.86;97916.71;104532;1277;63127;-23
2022/09/12 01:09:03;;;;;;;0.30;0.30;;;;;;;9.86;84.81;97912.39;104449;1277;62747;-23
2022/09/12 01:11:35;;;;;;;0.70;0.50;;;;;;;10.30;83.44;97911.33;104611;1277;75499;-24
2022/09/12 01:14:05;;;;;;;4.00;0.50;;;;;;;10.52;82.23;97909.13;104482;1277;75786;-23
2022/09/12 01:16:35;;;;;;;1.00;0.50;;;;;;;10.40;81.89;97906.53;104654;1278;75098;-24
2022/09/12 01:19:02;;;;;;;0.60;0.60;;;;;;;10.21;82.31;97912.68;104546;1277;62924;-23
2022/09/12 01:22:24;;;;;;;1.20;0.50;;;;;;;9.98;82.91;97911.27;104575;1277;63001;-23
2022/09/12 01:25:28;;;;;;;2.50;0.50;;;;;;;9.98;83.24;97912.26;103770;1284;76855;-24
2022/09/12 01:28:28;;;;;;;0.40;0.30;;;;;;;10.45;81.11;97910.61;103560;1287;75326;-23
2022/09/12 01:31:28;;;;;;;2.30;0.60;;;;;;;10.34;80.89;97914.20;103697;1286;75435;-23
2022/09/12 01:34:43;;;;;;;0.50;0.40;;;;;;;9.97;81.56;97915.31;103746;1284;61977;-23
2022/09/12 01:37:30;;;;;;;0.30;0.30;;;;;;;9.74;82.80;97912.40;103601;1286;61994;-24
2022/09/12 01:40:20;;;;;;;0.50;0.40;;;;;;;9.72;82.51;97909.08;103959;1284;75433;-24
2022/09/12 01:42:57;;;;;;;0.40;0.30;;;;;;;10.15;80.79;97911.20;103917;1285;76886;-24
2022/09/12 01:46:09;;;;;;;3.30;0.30;;;;;;;10.17;79.92;97912.87;103943;1284;75473;-24
2022/09/12 01:49:01;;;;;;;0.40;0.40;;;;;;;9.92;80.59;97915.98;103499;1284;61175;-24
2022/09/12 01:51:33;;;;;;;0.50;0.40;;;;;;;9.65;81.49;97915.99;103879;1284;62254;-24
2022/09/12 01:54:30;;;;;;;0.30;0.30;;;;;;;9.56;82.45;97913.52;103698;1284;75682;-26
2022/09/12 01:56:59;;;;;;;0.60;0.50;;;;;;;10.05;80.64;97913.91;103459;1284;75818;-24
2022/09/12 01:59:29;;;;;;;0.30;0.30;;;;;;;10.18;79.83;97913.87;104107;1278;75121;-24
2022/09/12 02:02:01;;;;;;;0.40;0.40;;;;;;;10.02;80.53;97914.55;104476;1278;63045;-24
2022/09/12 02:04:34;;;;;;;0.60;0.50;;;;;;;9.82;81.43;97916.77;104389;1277;61165;-25
2022/09/12 02:07:13;;;;;;;0.30;0.30;;;;;;;9.59;82.40;97912.17;104507;1278;74851;-24
2022/09/12 02:09:44;;;;;;;1.00;0.50;;;;;;;9.65;82.87;97911.30;104294;1281;76922;-23
2022/09/12 02:12:12;;;;;;;0.50;0.50;;;;;;;10.13;81.21;97906.41;104185;1281;75715;-23
2022/09/12 02:14:43;;;;;;;1.00;0.40;;;;;;;10.19;80.12;97907.63;104488;1278;62830;-23
2022/09/12 02:17:15;;;;;;;1.30;0.30;;;;;;;10.05;80.64;97906.48;104528;1277;62350;-23
2022/09/12 02:19:45;;;;;;;2.20;0.30;;;;;;;9.77;81.86;97907.42;104512;1278;75626;-24
2022/09/12 02:22:16;;;;;;;2.50;0.40;;;;;;;9.62;82.50;97908.46;104540;1280;75606;-23
2022/09/12 02:24:45;;;;;;;0.50;0.30;;;;;;;9.98;82.05;97907.22;104472;1278;75405;-23
2022/09/12 02:27:36;;;;;;;0.60;0.40;;;;;;;10.35;80.35;97907.83;104431;1277;61173;-23
2022/09/12 02:30:05;;;;;;;1.40;0.60;;;;;;;10.31;80.55;97909.83;104558;1278;63046;-23
2022/09/12 02:32:37;;;;;;;0.60;0.40;;;;;;;10.11;81.26;97912.11;104572;1277;76483;-23
2022/09/12 02:35:07;;;;;;;1.30;0.50;;;;;;;9.83;82.04;97912.23;104484;1278;76151;-23
2022/09/12 02:37:52;;;;;;;0.40;0.40;;;;;;;9.66;83.30;97907.42;104518;1278;74547;-24
2022/09/12 02:40:20;;;;;;;0.40;0.40;;;;;;;10.11;82.52;97912.23;104584;1278;63089;-24
2022/09/12 02:42:48;;;;;;;3.50;0.50;;;;;;;10.29;80.92;97908.84;104648;1278;62833;-25
2022/09/12 02:45:15;;;;;;;0.50;0.50;;;;;;;10.14;81.70;97906.55;104646;1278;76412;-25
2022/09/12 02:48:07;;;;;;;0.50;0.30;;;;;;;9.95;82.47;97910.81;104588;1278;77025;-25
2022/09/12 02:50:34;;;;;;;0.60;0.50;;;;;;;9.71;82.99;97902.80;104416;1277;75274;-26
2022/09/12 02:53:03;;;;;;;0.30;0.30;;;;;;;9.58;83.85;97907.30;104253;1277;64716;-26
2022/09/12 02:55:31;;;;;;;0.40;0.40;;;;;;;10.05;82.74;97907.47;104344;1277;61782;-25
2022/09/12 02:58:02;;;;;;;0.30;0.30;;;;;;;10.48;80.52;97904.39;104421;1277;76326;-25
2022/09/12 03:00:53;;;;;;;0.60;0.30;;;;;;;10.44;80.15;97904.23;104327;1277;77284;-25
2022/09/12 03:03:26;;;;;;;1.70;0.50;;;;;;;10.24;80.95;97905.87;104644;1277;74442;-25
2022/09/12 03:05:58;;;;;;;1.30;0.40;;;;;;;10.03;81.29;97908.02;104482;1278;61752;-25
2022/09/12 03:09:03;;;;;;;1.70;1.10;;;;;;;9.85;82.31;97908.35;104501;1277;63074;-25
2022/09/12 03:11:52;;;;;;;1.40;0.40;;;;;;;10.27;81.66;97904.15;104504;1278;76596;-25
2022/09/12 03:14:35;;;;;;;0.50;0.50;;;;;;;10.47;80.32;97900.53;104485;1277;75824;-24
2022/09/12 03:17:05;;;;;;;0.30;0.30;;;;;;;10.32;80.53;97901.58;104454;1276;75330;-25
2022/09/12 03:19:43;;;;;;;0.30;0.30;;;;;;;10.05;81.51;97902.61;104437;1280;63074;-25
2022/09/12 03:22:27;;;;;;;0.30;0.30;;;;;;;9.71;82.99;97903.94;104550;1277;62949;-24
2022/09/12 03:25:15;;;;;;;0.70;0.40;;;;;;;10.15;82.47;97900.47;104484;1278;74492;-24
2022/09/12 03:28:07;;;;;;;2.70;0.60;;;;;;;10.32;81.32;97898.62;104479;1278;75790;-25
2022/09/12 03:30:42;;;;;;;0.50;0.30;;;;;;;10.08;81.48;97902.20;104426;1277;75146;-25
2022/09/12 03:33:10;;;;;;;0.30;0.30;;;;;;;9.87;82.60;97902.55;104265;1277;63053;-24
2022/09/12 03:35:37;;;;;;;1.10;0.20;;;;;;;9.71;83.28;97901.71;104534;1277;62782;-24
2022/09/12 03:38:06;;;;;;;0.70;0.30;;;;;;;10.12;82.28;97902.61;104483;1277;76619;-24
2022/09/12 03:40:35;;;;;;;0.30;0.30;;;;;;;10.33;80.87;97902.34;104588;1277;77076;-24
2022/09/12 03:43:03;;;;;;;2.00;0.30;;;;;;;10.22;81.65;97900.77;104341;1277;73589;-25
2022/09/12 03:45:30;;;;;;;5.00;0.40;;;;;;;10.13;82.09;97901.30;104511;1277;62001;-24
2022/09/12 03:47:57;;;;;;;3.00;0.50;;;;;;;9.90;82.68;97896.56;104426;1277;63020;-24
2022/09/12 03:50:24;;;;;;;1.40;0.30;;;;;;;9.71;83.51;97894.14;104370;1277;75608;-24
2022/09/12 03:52:51;;;;;;;0.40;0.40;;;;;;;10.07;83.17;97895.54;104479;1277;76982;-25
2022/09/12 03:55:18;;;;;;;0.40;0.40;;;;;;;10.43;81.58;97890.33;104276;1277;73589;-25
2022/09/12 03:57:45;;;;;;;1.80;0.40;;;;;;;10.40;81.39;97887.49;104624;1277;61645;-24
2022/09/12 04:00:12;;;;;;;0.70;0.50;;;;;;;10.15;81.94;97893.85;104520;1278;63323;-24
2022/09/12 04:02:44;;;;;;;0.80;0.60;;;;;;;9.93;82.98;97892.89;104537;1277;75862;-24
2022/09/12 04:05:11;;;;;;;5.80;0.90;;;;;;;9.74;84.16;97896.41;104418;1278;76988;-24
2022/09/12 04:07:38;;;;;;;1.90;0.50;;;;;;;10.14;83.36;97893.21;104245;1278;75777;-25
2022/09/12 04:10:06;;;;;;;0.60;0.60;;;;;;;10.60;81.40;97890.53;104351;1277;61821;-25
2022/09/12 04:12:34;;;;;;;0.20;0.20;;;;;;;10.77;81.29;97888.25;104687;1277;63456;-24
2022/09/12 04:15:01;;;;;;;0.50;0.40;;;;;;;10.61;80.75;97888.48;104603;1277;76375;-25
2022/09/12 04:17:28;;;;;;;0.80;0.30;;;;;;;10.36;81.77;97888.48;104545;1277;76953;-24
2022/09/12 04:19:55;;;;;;;3.00;0.50;;;;;;;10.12;82.48;97890.14;104360;1277;75229;-25
2022/09/12 04:22:22;;;;;;;0.30;0.30;;;;;;;10.02;82.99;97888.02;104512;1277;64757;-25
2022/09/12 04:24:50;;;;;;;0.50;0.40;;;;;;;10.49;82.35;97887.73;104659;1277;61141;-25
2022/09/12 04:27:17;;;;;;;0.50;0.40;;;;;;;11.07;80.76;97884.13;104419;1277;76684;-25
2022/09/12 04:29:44;;;;;;;0.60;0.50;;;;;;;11.13;80.04;97886.06;104260;1277;74983;-25
2022/09/12 04:32:11;;;;;;;0.30;0.30;;;;;;;10.78;79.98;97884.58;104521;1277;75712;-25
2022/09/12 04:34:38;;;;;;;0.40;0.30;;;;;;;10.35;81.62;97887.77;104545;1277;62165;-25
2022/09/12 04:37:04;;;;;;;0.30;0.30;;;;;;;10.14;82.88;97889.58;104478;1277;62843;-25
2022/09/12 04:39:31;;;;;;;0.60;0.40;;;;;;;10.37;82.68;97886.34;104313;1277;76561;-25
2022/09/12 04:41:58;;;;;;;0.30;0.30;;;;;;;10.65;81.58;97886.92;104546;1277;75357;-24
2022/09/12 04:44:25;;;;;;;1.10;0.40;;;;;;;10.77;81.02;97883.95;104294;1278;74314;-25
2022/09/12 04:46:52;;;;;;;0.40;0.40;;;;;;;10.63;81.14;97885.05;104478;1277;62004;-25
2022/09/12 04:49:19;;;;;;;0.60;0.50;;;;;;;10.33;81.83;97886.38;104418;1277;61981;-25
2022/09/12 04:51:46;;;;;;;0.30;0.30;;;;;;;10.11;82.96;97885.95;104352;1277;75517;-25
2022/09/12 04:54:15;;;;;;;0.40;0.30;;;;;;;10.44;82.71;97884.49;104341;1277;76218;-25
2022/09/12 04:56:43;;;;;;;0.70;0.40;;;;;;;10.77;81.39;97882.92;104261;1277;75584;-24
2022/09/12 04:59:11;;;;;;;0.30;0.30;;;;;;;10.72;81.10;97887.87;104375;1277;62047;-25
2022/09/12 05:01:38;;;;;;;0.30;0.30;;;;;;;10.44;81.64;97883.79;104427;1278;63044;-24
2022/09/12 05:04:06;;;;;;;1.40;0.40;;;;;;;10.22;82.75;97889.89;104586;1277;75879;-25
2022/09/12 05:06:34;;;;;;;1.80;0.30;;;;;;;10.16;83.29;97893.08;104654;1277;76784;-24
2022/09/12 05:09:02;;;;;;;0.40;0.30;;;;;;;10.61;82.42;97890.96;104578;1277;74339;-24
2022/09/12 05:11:31;;;;;;;0.70;0.40;;;;;;;10.82;81.36;97888.80;104418;1277;61769;-24
2022/09/12 05:14:18;;;;;;;0.50;0.40;;;;;;;10.55;81.83;97889.23;104579;1277;62794;-24
2022/09/12 05:16:45;;;;;;;0.40;0.30;;;;;;;10.39;82.30;97892.95;104573;1277;74436;-24
2022/09/12 05:19:15;;;;;;;0.30;0.30;;;;;;;10.22;82.91;97896.63;104560;1277;77410;-24
2022/09/12 05:21:42;;;;;;;0.30;0.30;;;;;;;10.52;82.41;97894.25;104255;1278;75653;-26
2022/09/12 05:24:09;;;;;;;0.90;0.40;;;;;;;10.92;80.92;97892.85;104328;1277;62406;-25
2022/09/12 05:26:36;;;;;;;0.90;0.40;;;;;;;10.93;80.54;97891.06;104287;1277;63448;-25
2022/09/12 05:29:03;;;;;;;0.30;0.30;;;;;;;10.72;80.75;97895.94;104380;1277;75333;-25
2022/09/12 05:31:30;;;;;;;0.50;0.50;;;;;;;10.48;81.25;97895.48;104465;1277;75818;-25
2022/09/12 05:33:57;;;;;;;0.50;0.40;;;;;;;10.37;82.11;97895.89;104366;1277;74330;-25
2022/09/12 05:36:28;;;;;;;0.50;0.30;;;;;;;10.71;81.38;97893.45;104402;1277;61900;-25
2022/09/12 05:38:55;;;;;;;0.70;0.50;;;;;;;11.08;80.32;97894.02;104247;1277;63006;-25
2022/09/12 05:41:24;;;;;;;1.50;0.40;;;;;;;11.08;80.02;97891.75;104267;1280;76610;-25
2022/09/12 05:43:55;;;;;;;1.20;0.60;;;;;;;10.83;80.36;97890.66;104419;1277;77056;-25
2022/09/12 05:46:31;;;;;;;0.60;0.30;;;;;;;10.56;81.34;97893.56;104483;1277;73110;-25
2022/09/12 05:49:02;;;;;;;0.20;0.20;;;;;;;10.31;82.48;97892.33;104277;1277;64700;-25
2022/09/12 05:51:31;;;;;;;0.30;0.30;;;;;;;10.70;82.13;97895.20;104338;1277;62854;-25
2022/09/12 05:53:59;;;;;;;0.40;0.40;;;;;;;11.05;80.80;97891.41;104476;1277;76557;-25
2022/09/12 05:56:28;;;;;;;0.70;0.40;;;;;;;10.96;80.38;97891.56;104391;1277;76991;-25
2022/09/12 05:59:00;;;;;;;0.60;0.20;;;;;;;10.76;81.22;97894.11;104367;1277;75390;-25
2022/09/12 06:01:29;;;;;;;0.20;0.20;;;;;;;10.57;81.45;97893.09;104429;1276;62052;-25
2022/09/12 06:03:59;;;;;;;0.20;0.20;;;;;;;10.47;82.28;97897.80;104439;1277;63112;-25
2022/09/12 06:06:27;;;;;;;0.40;0.30;;;;;;;11.00;81.34;97896.95;104618;1277;74473;-26
2022/09/12 06:08:59;;;;;;;0.30;0.20;;;;;;;11.19;80.44;97896.58;104636;1277;76960;-25
2022/09/12 06:11:27;;;;;;;1.40;0.40;;;;;;;11.02;80.77;97892.96;104543;1277;75312;-25
2022/09/12 06:13:55;;;;;;;0.50;0.30;;;;;;;10.79;81.43;97889.73;104451;1277;62785;-25
2022/09/12 06:16:27;;;;;;;0.20;0.20;;;;;;;10.61;81.75;97891.94;104504;1276;62176;-25
2022/09/12 06:19:05;;;;;;;0.60;0.20;;;;;;;10.47;82.25;97889.74;104524;1277;76618;-25
2022/09/12 06:21:36;;;;;;;0.40;0.30;;;;;;;10.95;81.62;97889.61;104628;1277;75868;-25
2022/09/12 06:24:03;;;;;;;0.20;0.20;;;;;;;11.18;80.89;97890.29;104596;1277;75386;-25
2022/09/12 06:26:30;;;;;;;0.30;0.30;;;;;;;11.10;80.74;97892.23;104668;1277;61878;-24
2022/09/12 06:28:59;;;;;;;0.20;0.20;;;;;;;11.01;81.05;97888.17;104583;1277;63052;-25
2022/09/12 06:31:28;;;;;;;0.20;0.20;;;;;;;10.84;81.93;97887.73;104301;1277;76563;-25
2022/09/12 06:33:57;;;;;;;1.00;0.30;;;;;;;10.62;82.96;97888.14;104389;1277;76090;-25
2022/09/12 06:36:26;;;;;;;0.20;0.20;;;;;;;10.93;82.68;97887.41;104615;1277;74056;-25
2022/09/12 06:38:57;;;;;;;0.20;0.20;;;;;;;11.31;80.89;97882.31;104516;1277;62301;-25
2022/09/12 06:41:24;;;;;;;0.30;0.20;;;;;;;11.31;80.47;97885.64;104265;1277;62861;-25
2022/09/12 06:43:52;;;;;;;0.60;0.20;;;;;;;11.07;80.38;97887.95;104430;1277;76575;-25
2022/09/12 06:46:19;;;;;;;0.30;0.20;;;;;;;10.84;81.50;97886.17;104312;1277;77043;-24
2022/09/12 06:48:47;;;;;;;0.20;0.20;;;;;;;10.74;82.22;97889.64;104361;1278;74381;-25
2022/09/12 06:51:16;;;;;;;0.20;0.20;;;;;;;11.21;81.50;97886.16;104628;1277;63058;-25
2022/09/12 06:53:44;;;;;;;0.20;0.20;;;;;;;11.42;80.18;97888.34;104630;1277;62881;-25
2022/09/12 06:56:18;;;;;;;0.20;0.20;;;;;;;11.43;80.86;97887.02;104491;1277;76384;-25
2022/09/12 06:58:45;;;;;;;0.20;0.20;;;;;;;11.12;81.14;97893.33;104285;1277;77014;-25
2022/09/12 07:01:19;;;;;;;0.20;0.20;;;;;;;10.71;83.17;97894.27;104618;1277;74208;-25
2022/09/12 07:03:51;;;;;;;0.20;0.20;;;;;;;10.93;82.78;97895.52;104469;1277;62903;-26
2022/09/12 07:06:20;;;;;;;0.20;0.20;;;;;;;11.24;81.37;97895.19;104530;1277;62996;-23
2022/09/12 07:08:47;;;;;;;0.20;0.20;;;;;;;11.18;80.96;97900.52;104387;1277;76377;-26
2022/09/12 07:11:22;;;;;;;0.20;0.20;;;;;;;10.98;81.20;97901.87;104328;1277;74943;-24
2022/09/12 07:13:51;;;;;;;0.30;0.20;;;;;;;10.74;82.48;97905.23;104460;1277;75548;-23
2022/09/12 07:16:18;;;;;;;0.20;0.20;;;;;;;10.59;83.41;97907.06;104492;1277;63945;-25
2022/09/12 07:18:56;;;;;;;0.20;0.20;;;;;;;11.08;82.33;97906.36;104608;1277;61905;-23
2022/09/12 07:21:23;;;;;;;0.80;0.20;;;;;;;11.43;81.05;97909.64;104472;1277;76641;-26
2022/09/12 07:23:50;;;;;;;0.30;0.30;;;;;;;11.39;80.70;97909.31;104603;1277;77006;-25
2022/09/12 07:26:17;;;;;;;1.40;0.30;;;;;;;11.18;81.75;97909.14;104273;1277;75612;-26
2022/09/12 07:28:44;;;;;;;0.20;0.20;;;;;;;11.00;82.14;97912.23;104215;1277;61768;-26
2022/09/12 07:31:16;;;;;;;0.30;0.30;;;;;;;10.93;82.66;97910.86;104212;1277;61996;-26
2022/09/12 07:33:43;;;;;;;0.30;0.30;;;;;;;11.33;82.10;97913.55;104441;1277;76619;-24
2022/09/12 07:36:12;;;;;;;0.20;0.20;;;;;;;11.67;80.65;97911.50;104857;1274;75810;-24
2022/09/12 07:38:40;;;;;;;0.20;0.20;;;;;;;11.56;79.99;97911.27;104680;1274;75149;-25
2022/09/12 07:41:22;;;;;;;0.40;0.40;;;;;;;11.29;80.61;97917.61;105004;1274;63369;-23
2022/09/12 07:43:53;;;;;;;0.50;0.30;;;;;;;11.09;81.17;97920.30;104717;1274;63161;-25
2022/09/12 07:46:21;;;;;;;0.20;0.20;;;;;;;10.98;82.71;97920.55;104838;1274;76399;-24
2022/09/12 07:48:50;;;;;;;0.20;0.20;;;;;;;11.25;81.21;97919.59;105026;1274;75820;-24
2022/09/12 07:51:17;;;;;;;1.20;0.30;;;;;;;11.41;79.99;97919.69;104599;1274;75875;-24
2022/09/12 07:53:45;;;;;;;0.80;0.30;;;;;;;11.32;80.50;97923.73;104829;1274;63086;-24
2022/09/12 07:56:12;;;;;;;0.20;0.20;;;;;;;11.10;81.51;97930.32;104989;1274;63356;-24
2022/09/12 07:58:40;;;;;;;0.20;0.20;;;;;;;10.94;82.27;97929.20;104911;1274;77055;-24
2022/09/12 08:01:12;;;;;;;0.30;0.20;;;;;;;11.18;81.80;97924.34;104642;1273;75908;-26
2022/09/12 08:03:40;;;;;;;0.40;0.20;;;;;;;11.40;80.06;97927.30;104444;1274;74554;-24
2022/09/12 08:06:09;;;;;;;0.10;0.10;;;;;;;11.26;80.48;97926.11;104595;1274;63117;-26
2022/09/12 08:08:37;;;;;;;0.20;0.20;;;;;;;11.09;80.53;97924.54;102885;1274;2232166;-24
2022/09/12 08:11:07;;;;;;;0.20;0.20;;;;;;;10.88;81.68;97931.97;104782;1274;75543;-24
2022/09/12 08:13:34;;;;;;;4.60;0.30;;;;;;;10.77;81.89;97928.58;104637;1274;73281;-24
2022/09/12 08:16:04;;;;;;;0.20;0.20;;;;;;;11.12;81.31;97930.61;104691;1274;75171;-24
2022/09/12 08:18:31;;;;;;;0.20;0.20;;;;;;;11.33;80.71;97930.83;104711;1274;61844;-24
2022/09/12 08:20:59;;;;;;;0.30;0.30;;;;;;;11.10;79.72;97926.98;104839;1274;62981;-24
2022/09/12 08:23:27;;;;;;;0.40;0.30;;;;;;;10.72;81.81;97936.67;104780;1274;76615;-24
2022/09/12 08:25:56;;;;;;;0.10;0.10;;;;;;;10.59;83.68;97935.37;104916;1274;76055;-24
2022/09/12 08:28:24;;;;;;;0.30;0.30;;;;;;;11.06;81.09;97930.22;104870;1274;74424;-24
2022/09/12 08:30:52;;;;;;;0.40;0.30;;;;;;;11.37;79.84;97934.06;104821;1274;63094;-24
2022/09/12 08:33:19;;;;;;;0.20;0.20;;;;;;;11.37;79.41;97931.23;104802;1274;62240;-24
2022/09/12 08:35:46;;;;;;;0.30;0.30;;;;;;;11.09;79.66;97927.77;104793;1273;76578;-24
2022/09/12 08:38:13;;;;;;;0.70;0.30;;;;;;;10.96;82.17;97935.88;104885;1274;76001;-25
2022/09/12 08:40:52;;;;;;;0.30;0.30;;;;;;;10.90;81.41;97935.45;104656;1274;75686;-24
2022/09/12 08:43:34;;;;;;;0.40;0.40;;;;;;;11.25;79.20;97931.59;104753;1274;63119;-24
2022/09/12 08:46:08;;;;;;;0.40;0.40;;;;;;;11.40;78.32;97933.17;104773;1274;63048;-24
2022/09/12 08:48:35;;;;;;;;;;;;;;;11.43;79.67;97929.13;104869;1274;75512;-24
2022/09/12 08:51:03;;;;;;;1.30;0.40;;;;;;;11.21;81.00;97932.55;104582;1274;74890;-24
2022/09/12 08:53:30;;;;;;;1.10;0.30;;;;;;;11.11;80.52;97928.98;104760;1274;74284;-24
2022/09/12 08:55:58;;;;;;;2.20;0.80;;;;;;;11.25;79.08;97931.42;104933;1274;63063;-24
2022/09/12 08:58:27;;;;;;;0.30;0.30;;;;;;;11.55;78.83;97932.58;104697;1274;62105;-24
2022/09/12 09:01:06;;;;;;;0.50;0.40;;;;;;;11.42;78.57;97927.11;104510;1274;75595;-24
2022/09/12 09:03:39;;;;;;;0.30;0.30;;;;;;;11.32;78.97;97928.80;104817;1274;75986;-26
2022/09/12 09:06:17;;;;;;;0.70;0.40;;;;;;;10.87;79.51;97933.35;104819;1272;74591;-24
2022/09/12 09:09:03;;;;;;;0.40;0.30;;;;;;;10.76;81.55;97938.59;104608;1274;62791;-24
2022/09/12 09:11:47;;;;;;;0.20;0.20;;;;;;;11.02;78.54;97933.23;104706;1274;63073;-24
2022/09/12 09:14:47;;;;;;;0.20;0.20;;;;;;;10.98;77.12;97933.95;104732;1271;75540;-24
2022/09/12 09:17:36;;;;;;;0.40;0.30;;;;;;;10.87;79.23;97939.23;105009;1274;76718;-26
2022/09/12 09:20:06;;;;;;;0.20;0.20;;;;;;;10.73;80.01;97942.15;105017;1274;75966;-26
2022/09/12 09:22:43;;;;;;;0.80;0.30;;;;;;;10.50;81.35;97942.85;104738;1274;63668;-25
2022/09/12 09:25:17;;;;;;;0.20;0.20;;;;;;;10.54;81.50;97941.36;104754;1274;61735;-26
2022/09/12 09:27:58;;;;;;;0.90;0.30;;;;;;;11.05;80.31;97942.31;104859;1274;74650;-26
2022/09/12 09:30:25;;;;;;;0.30;0.30;;;;;;;11.07;79.23;97941.39;104648;1274;76714;-26
2022/09/12 09:32:57;;;;;;;0.30;0.30;;;;;;;11.01;79.45;97945.45;104961;1274;74464;-25
2022/09/12 09:35:36;;;;;;;0.30;0.30;;;;;;;10.85;80.69;97942.39;104631;1274;62825;-26
2022/09/12 09:38:22;;;;;;;0.20;0.20;;;;;;;10.76;81.48;97947.90;104758;1274;63346;-25
2022/09/12 09:41:07;;;;;;;0.40;0.30;;;;;;;11.23;80.47;97939.45;104830;1274;75774;-26
2022/09/12 09:43:34;;;;;;;0.30;0.30;;;;;;;11.60;79.54;97940.85;104766;1274;77433;-26
2022/09/12 09:46:02;;;;;;;0.50;0.30;;;;;;;11.70;79.63;97940.19;104599;1274;74962;-26
2022/09/12 09:48:30;;;;;;;0.40;0.30;;;;;;;11.59;79.60;97942.74;104971;1274;62774;-26
2022/09/12 09:50:59;;;;;;;0.40;0.40;;;;;;;11.52;79.67;97946.79;104653;1274;63063;-26
2022/09/12 09:54:00;;;;;;;0.30;0.30;;;;;;;11.34;79.93;97947.18;104477;1274;75555;-27
2022/09/12 09:56:41;;;;;;;0.40;0.40;;;;;;;12.01;78.87;97949.23;104621;1274;76002;-26
2022/09/12 09:59:08;;;;;;;0.30;0.30;;;;;;;11.98;76.73;97948.98;104638;1273;74657;-26
2022/09/12 10:01:36;;;;;;;1.40;0.30;;;;;;;11.81;76.74;97951.42;104854;1274;63170;-26
2022/09/12 10:04:03;;;;;;;0.20;0.20;;;;;;;11.70;76.87;97959.36;104580;1274;61372;-25
2022/09/12 10:06:31;;;;;;;0.30;0.30;;;;;;;11.44;78.46;97957.59;104739;1274;76589;-25
2022/09/12 10:09:17;;;;;;;0.20;0.20;;;;;;;11.30;78.82;97959.71;104747;1274;77040;-25
2022/09/12 10:11:46;;;;;;;0.20;0.20;;;;;;;11.61;78.13;97959.89;104879;1274;75424;-26
2022/09/12 10:14:30;;;;;;;0.20;0.20;;;;;;;12.10;76.78;97960.59;104647;1274;62880;-26
2022/09/12 10:16:57;;;;;;;0.20;0.20;;;;;;;12.15;76.01;97967.09;104739;1274;63118;-25
2022/09/12 10:19:35;;;;;;;0.30;0.30;;;;;;;11.94;75.24;97965.71;104780;1274;76614;-26
2022/09/12 10:22:03;;;;;;;0.30;0.20;;;;;;;11.76;76.35;97970.67;104619;1274;76062;-26
2022/09/12 10:24:40;;;;;;;0.60;0.30;;;;;;;11.49;75.02;97967.90;104760;1274;75404;-26
2022/09/12 10:27:22;;;;;;;0.20;0.20;;;;;;;11.50;77.52;97974.64;104871;1274;63726;-26
2022/09/12 10:29:59;;;;;;;0.90;0.30;;;;;;;12.13;76.76;97975.96;104617;1274;62883;-26
2022/09/12 10:32:28;;;;;;;0.30;0.30;;;;;;;12.43;74.16;97974.52;104605;1274;75056;-26
2022/09/12 10:35:01;;;;;;;0.40;0.20;;;;;;;12.34;74.09;97973.96;104599;1274;75970;-26
2022/09/12 10:37:33;;;;;;;0.20;0.20;;;;;;;12.34;75.65;97979.70;104482;1274;75537;-26
2022/09/12 10:40:02;;;;;;;0.30;0.30;;;;;;;12.00;74.36;97974.57;104615;1274;63283;-25
2022/09/12 10:42:46;;;;;;;0.30;0.30;;;;;;;11.82;75.47;97986.00;104663;1274;63041;-25
2022/09/12 10:45:30;;;;;;;0.30;0.20;;;;;;;11.87;77.15;97982.45;104795;1274;76089;-25
2022/09/12 10:47:59;;;;;;;0.30;0.30;;;;;;;12.45;74.65;97983.59;104795;1274;76818;-25
2022/09/12 10:50:40;;;;;;;0.20;0.20;;;;;;;12.76;72.38;97986.17;104617;1274;75360;-25
2022/09/12 10:53:21;;;;;;;0.20;0.20;;;;;;;12.83;73.02;97989.52;104668;1274;62131;-25
2022/09/12 10:56:00;;;;;;;0.20;0.20;;;;;;;12.73;74.12;97990.36;104439;1274;62134;-25
2022/09/12 10:58:39;;;;;;;0.30;0.30;;;;;;;12.52;73.97;97995.00;104993;1274;75497;-25
2022/09/12 11:01:33;;;;;;;0.20;0.20;;;;;;;12.28;73.09;97996.15;104586;1274;77001;-25
2022/09/12 11:04:29;;;;;;;0.30;0.30;;;;;;;11.94;73.73;97994.73;104671;1274;75638;-25
2022/09/12 11:07:30;;;;;;;0.20;0.20;;;;;;;11.90;75.55;97999.58;104869;1274;64399;-26
2022/09/12 11:10:20;;;;;;;0.20;0.20;;;;;;;12.65;73.77;98001.10;105067;1274;63282;-26
2022/09/12 11:13:00;;;;;;;0.20;0.20;;;;;;;12.80;71.75;98003.41;104801;1274;76781;-26
2022/09/12 11:15:33;;;;;;;0.20;0.20;;;;;;;12.54;71.37;98005.75;104800;1274;77278;-25
2022/09/12 11:18:19;;;;;;;0.30;0.30;;;;;;;12.36;72.83;98008.79;104948;1274;74533;-25
2022/09/12 11:21:03;;;;;;;0.40;0.30;;;;;;;12.03;73.10;98005.00;104715;1274;61878;-26
2022/09/12 11:23:30;;;;;;;0.30;0.30;;;;;;;11.77;75.03;98010.30;104943;1273;62999;-26
2022/09/12 11:26:19;;;;;;;0.20;0.20;;;;;;;11.65;75.33;98012.02;104830;1274;76592;-26
2022/09/12 11:28:56;;;;;;;0.30;0.30;;;;;;;12.23;74.73;98016.19;104716;1274;76116;-24
2022/09/12 11:31:40;;;;;;;0.20;0.20;;;;;;;12.62;72.76;98015.16;104598;1274;75616;-24
2022/09/12 11:34:08;;;;;;;;;;;;;;;12.84;73.76;98021.75;104616;1274;63027;-24
2022/09/12 11:36:38;;;;;;;0.20;0.20;;;;;;;12.72;71.76;98022.77;104821;1274;62787;-24
2022/09/12 11:39:16;;;;;;;0.30;0.30;;;;;;;12.62;73.42;98024.29;105024;1274;76800;-24
2022/09/12 11:41:47;;;;;;;0.30;0.30;;;;;;;12.29;74.05;98025.49;104705;1274;76995;-25
2022/09/12 11:44:22;;;;;;;0.10;0.10;;;;;;;12.15;74.40;98030.67;104729;1274;74943;-24
2022/09/12 11:46:49;;;;;;;0.20;0.20;;;;;;;12.09;74.44;98029.45;104756;1274;62607;-26
2022/09/12 11:49:39;;;;;;;0.20;0.20;;;;;;;12.69;72.75;98030.65;104861;1274;61946;-26
2022/09/12 11:52:19;;;;;;;0.90;0.40;;;;;;;13.04;70.35;98028.66;104793;1274;75495;-24
2022/09/12 11:54:57;;;;;;;0.20;0.20;;;;;;;12.97;71.01;98034.36;104831;1274;77258;-25